Time;durP1;ratioP1;P1;durP2;ratioP2;P2;SDS_P1;SDS_P2;PMS_P1;PMS_P2;Temp;Humidity;BMP_temperature;BMP_pressure;BME280_temperature;BME280_humidity;BME280_pressure;Samples;Min_cycle;Max_cycle;Signal;HPM_P1;HPM_P2
2023/11/11 00:01:35;;;;;;;2.08;0.60;;;16.80;65.90;;;;;;5054085;28;20025;-65
2023/11/11 00:04:01;;;;;;;0.65;0.50;;;16.80;65.90;;;;;;5039125;28;20534;-65
2023/11/11 00:06:27;;;;;;;1.02;0.60;;;16.80;65.90;;;;;;5040337;28;20025;-64
2023/11/11 00:08:52;;;;;;;1.80;1.10;;;16.80;65.90;;;;;;5039975;28;20032;-64
2023/11/11 00:11:18;;;;;;;1.10;0.60;;;16.80;65.90;;;;;;5042449;28;20027;-64
2023/11/11 00:13:44;;;;;;;1.45;0.63;;;16.80;65.90;;;;;;5043644;28;20052;-64
2023/11/11 00:16:09;;;;;;;0.60;0.55;;;16.80;66.00;;;;;;5042508;28;20048;-65
2023/11/11 00:18:36;;;;;;;1.25;0.75;;;16.80;65.90;;;;;;5056069;28;20037;-64
2023/11/11 00:21:03;;;;;;;1.05;0.55;;;16.80;65.90;;;;;;5044851;28;20025;-64
2023/11/11 00:23:30;;;;;;;1.13;0.52;;;16.80;66.00;;;;;;5048385;28;20037;-64
2023/11/11 00:25:56;;;;;;;1.48;0.60;;;16.80;65.90;;;;;;5049549;28;20135;-64
2023/11/11 00:28:22;;;;;;;0.85;0.50;;;16.80;65.90;;;;;;5049394;28;20522;-66
2023/11/11 00:30:47;;;;;;;1.17;0.80;;;16.80;65.90;;;;;;5049790;28;20499;-64
2023/11/11 00:33:13;;;;;;;1.65;0.68;;;16.80;66.00;;;;;;5049070;28;20094;-64
2023/11/11 00:35:38;;;;;;;1.08;0.63;;;16.70;65.90;;;;;;5049390;28;20059;-66
2023/11/11 00:38:04;;;;;;;1.73;0.70;;;16.80;65.90;;;;;;5043072;28;20025;-65
2023/11/11 00:40:29;;;;;;;0.80;0.60;;;16.80;65.90;;;;;;5047291;28;20056;-64
2023/11/11 00:42:55;;;;;;;0.52;0.50;;;16.80;65.90;;;;;;5048824;28;20041;-65
2023/11/11 00:45:22;;;;;;;1.10;0.60;;;16.70;65.80;;;;;;5048644;28;20033;-65
2023/11/11 00:47:48;;;;;;;1.77;0.85;;;16.70;65.80;;;;;;5048165;28;20124;-65
2023/11/11 00:50:13;;;;;;;0.80;0.50;;;16.80;65.90;;;;;;5046315;28;20141;-66
2023/11/11 00:52:39;;;;;;;1.17;0.60;;;16.70;65.80;;;;;;5041342;28;20044;-65
2023/11/11 00:55:07;;;;;;;1.35;0.60;;;16.80;65.90;;;;;;5042203;28;20466;-65
2023/11/11 00:57:33;;;;;;;0.88;0.60;;;16.80;65.90;;;;;;5040794;28;20141;-65
2023/11/11 00:59:58;;;;;;;0.70;0.50;;;16.70;65.80;;;;;;5043222;28;20025;-65
2023/11/11 01:02:24;;;;;;;0.88;0.60;;;16.80;65.80;;;;;;5042660;28;20040;-64
2023/11/11 01:04:49;;;;;;;0.80;0.60;;;16.70;65.80;;;;;;5041591;28;20511;-64
2023/11/11 01:07:15;;;;;;;1.63;0.77;;;16.70;65.80;;;;;;5042468;28;20036;-66
2023/11/11 01:09:41;;;;;;;0.70;0.60;;;16.70;65.80;;;;;;5041079;28;20041;-66
2023/11/11 01:12:07;;;;;;;1.95;0.70;;;16.70;65.80;;;;;;5040914;28;20494;-65
2023/11/11 01:14:34;;;;;;;0.85;0.70;;;16.70;65.80;;;;;;5043052;28;20068;-65
2023/11/11 01:17:02;;;;;;;1.00;0.82;;;16.70;65.80;;;;;;5039539;28;20033;-63
2023/11/11 01:19:28;;;;;;;0.82;0.60;;;16.70;65.80;;;;;;5041911;28;20029;-62
2023/11/11 01:21:54;;;;;;;0.80;0.65;;;16.70;65.80;;;;;;5044111;28;20373;-66
2023/11/11 01:24:19;;;;;;;1.73;0.70;;;16.70;65.80;;;;;;5047712;28;20033;-65
2023/11/11 01:26:45;;;;;;;0.93;0.70;;;16.70;65.80;;;;;;5047007;28;20025;-65
2023/11/11 01:29:11;;;;;;;1.52;0.60;;;16.70;65.80;;;;;;5046549;28;20025;-67
2023/11/11 01:31:37;;;;;;;1.63;0.60;;;16.70;65.80;;;;;;5047242;28;20021;-65
2023/11/11 01:34:04;;;;;;;1.88;0.63;;;16.70;65.80;;;;;;5047366;28;20029;-65
2023/11/11 01:36:30;;;;;;;1.60;0.70;;;16.70;65.80;;;;;;5046081;28;20390;-65
2023/11/11 01:38:55;;;;;;;1.98;0.70;;;16.70;65.80;;;;;;5051738;28;20083;-65
2023/11/11 01:41:21;;;;;;;0.73;0.45;;;16.70;65.80;;;;;;5048815;28;20589;-64
2023/11/11 01:43:47;;;;;;;0.60;0.60;;;16.70;65.80;;;;;;5051700;28;20404;-64
2023/11/11 01:46:12;;;;;;;0.85;0.50;;;16.70;65.80;;;;;;5051279;28;20067;-65
2023/11/11 01:48:40;;;;;;;0.95;0.63;;;16.70;65.80;;;;;;5046505;28;20059;-66
2023/11/11 01:51:06;;;;;;;0.65;0.43;;;16.70;65.70;;;;;;5043513;28;20620;-66
2023/11/11 01:53:33;;;;;;;1.38;0.60;;;16.70;65.70;;;;;;5043785;28;20116;-65
2023/11/11 01:55:59;;;;;;;0.80;0.52;;;16.70;65.70;;;;;;5039814;28;20446;-65
2023/11/11 01:58:26;;;;;;;1.02;0.77;;;16.70;65.80;;;;;;5041197;28;20033;-64
2023/11/11 02:00:53;;;;;;;0.75;0.60;;;16.70;65.80;;;;;;5039724;28;20040;-66
2023/11/11 02:03:22;;;;;;;1.95;0.60;;;16.70;65.70;;;;;;5040537;28;20038;-65
2023/11/11 02:05:50;;;;;;;1.58;0.60;;;16.70;65.80;;;;;;5042410;28;20033;-64
2023/11/11 02:08:16;;;;;;;0.80;0.60;;;16.70;65.80;;;;;;5054286;28;20033;-64
2023/11/11 02:10:42;;;;;;;0.68;0.50;;;16.70;65.70;;;;;;5040148;28;20438;-64
2023/11/11 02:13:07;;;;;;;1.40;0.65;;;16.70;65.80;;;;;;5036925;28;20534;-64
2023/11/11 02:15:34;;;;;;;0.77;0.50;;;16.70;65.70;;;;;;5042513;28;20455;-65
2023/11/11 02:18:02;;;;;;;0.82;0.70;;;16.60;65.70;;;;;;5036651;28;20432;-64
2023/11/11 02:20:32;;;;;;;0.85;0.50;;;16.70;65.70;;;;;;5041813;28;20025;-65
2023/11/11 02:23:02;;;;;;;0.93;0.50;;;16.70;65.70;;;;;;5037338;28;20510;-64
2023/11/11 02:25:28;;;;;;;1.17;0.70;;;16.70;65.80;;;;;;5041898;28;20402;-64
2023/11/11 02:27:53;;;;;;;0.65;0.50;;;16.60;65.60;;;;;;5042817;28;20025;-65
2023/11/11 02:30:19;;;;;;;1.98;0.60;;;16.60;65.70;;;;;;5038498;28;20063;-67
2023/11/11 02:32:45;;;;;;;0.50;0.43;;;16.70;65.70;;;;;;5040955;28;20053;-63
2023/11/11 02:35:11;;;;;;;1.52;0.65;;;16.60;65.60;;;;;;5045618;28;20436;-65
2023/11/11 02:37:37;;;;;;;1.20;0.60;;;16.70;65.70;;;;;;5050813;28;20119;-65
2023/11/11 02:40:02;;;;;;;1.20;0.60;;;16.60;66.20;;;;;;5051660;28;20112;-65
2023/11/11 02:42:28;;;;;;;0.47;0.35;;;16.60;65.70;;;;;;5045575;28;20120;-64
2023/11/11 02:44:53;;;;;;;0.95;0.38;;;16.60;65.60;;;;;;5049644;28;20072;-65
2023/11/11 02:47:20;;;;;;;1.10;0.50;;;16.60;65.60;;;;;;5044484;28;20491;-64
2023/11/11 02:49:45;;;;;;;1.00;0.52;;;16.60;65.60;;;;;;5046033;28;20037;-64
2023/11/11 02:52:11;;;;;;;0.95;0.40;;;16.60;65.70;;;;;;5044421;28;20533;-64
2023/11/11 02:54:36;;;;;;;1.02;0.55;;;16.60;65.60;;;;;;5052586;28;20112;-65
2023/11/11 02:57:02;;;;;;;0.85;0.40;;;16.60;65.60;;;;;;5044791;28;20079;-64
2023/11/11 02:59:27;;;;;;;1.83;0.40;;;16.60;65.70;;;;;;5049282;28;20037;-64
2023/11/11 03:01:53;;;;;;;0.70;0.57;;;16.60;65.60;;;;;;5048632;28;20190;-64
2023/11/11 03:04:18;;;;;;;0.80;0.40;;;16.60;65.60;;;;;;5048565;28;20027;-64
2023/11/11 03:06:46;;;;;;;0.77;0.60;;;16.60;65.60;;;;;;5044845;28;20444;-63
2023/11/11 03:09:11;;;;;;;1.02;0.65;;;16.60;65.60;;;;;;5048063;28;20067;-64
2023/11/11 03:11:37;;;;;;;0.63;0.47;;;16.60;65.60;;;;;;5045031;28;20021;-64
2023/11/11 03:14:04;;;;;;;0.75;0.50;;;16.60;65.60;;;;;;5044948;28;20025;-64
2023/11/11 03:16:36;;;;;;;0.60;0.52;;;16.60;65.60;;;;;;5054663;28;20040;-64
2023/11/11 03:19:02;;;;;;;1.42;0.60;;;16.60;65.60;;;;;;5044660;28;20085;-64
2023/11/11 03:21:27;;;;;;;0.32;0.32;;;16.60;65.60;;;;;;5045397;28;20471;-64
2023/11/11 03:23:53;;;;;;;0.73;0.45;;;16.60;65.60;;;;;;5034489;28;20535;-64
2023/11/11 03:26:19;;;;;;;1.13;0.60;;;16.60;65.60;;;;;;5040144;28;20052;-65
2023/11/11 03:28:45;;;;;;;0.82;0.50;;;16.60;65.50;;;;;;5037904;28;20411;-65
2023/11/11 03:31:11;;;;;;;0.40;0.40;;;16.60;65.60;;;;;;5042023;28;20111;-66
2023/11/11 03:33:36;;;;;;;1.75;0.65;;;16.60;65.60;;;;;;5037964;28;20521;-65
2023/11/11 03:36:02;;;;;;;1.23;0.70;;;16.60;65.60;;;;;;5038915;28;20032;-65
2023/11/11 03:38:29;;;;;;;0.70;0.50;;;16.50;65.50;;;;;;5039488;28;20036;-65
2023/11/11 03:40:56;;;;;;;0.98;0.55;;;16.60;65.60;;;;;;5039388;28;20029;-64
2023/11/11 03:43:23;;;;;;;0.60;0.50;;;16.60;65.50;;;;;;5038046;28;20041;-65
2023/11/11 03:45:48;;;;;;;0.80;0.40;;;16.60;65.60;;;;;;5044626;28;20120;-65
2023/11/11 03:48:14;;;;;;;0.70;0.45;;;16.60;65.60;;;;;;5043589;28;20152;-63
2023/11/11 03:50:40;;;;;;;0.82;0.50;;;16.60;65.60;;;;;;5042268;28;20033;-62
2023/11/11 03:53:06;;;;;;;0.98;0.50;;;16.60;65.50;;;;;;5050681;28;20040;-66
2023/11/11 03:55:32;;;;;;;0.55;0.40;;;16.50;65.50;;;;;;5053837;28;20028;-67
2023/11/11 03:57:57;;;;;;;0.77;0.60;;;16.60;65.80;;;;;;5047964;28;20035;-65
2023/11/11 04:00:23;;;;;;;0.32;0.30;;;16.60;65.50;;;;;;5047136;28;20029;-64
2023/11/11 04:02:48;;;;;;;0.65;0.50;;;16.50;65.50;;;;;;5047471;28;20514;-65
2023/11/11 04:05:14;;;;;;;1.30;0.50;;;16.50;65.40;;;;;;5047624;28;20029;-66
2023/11/11 04:07:40;;;;;;;0.82;0.50;;;16.50;65.50;;;;;;5050467;28;20112;-64
2023/11/11 04:10:06;;;;;;;1.25;0.93;;;16.50;65.40;;;;;;5053151;28;20037;-66
2023/11/11 04:12:32;;;;;;;0.70;0.32;;;16.50;65.50;;;;;;5050157;28;20113;-66
2023/11/11 04:14:57;;;;;;;1.20;0.40;;;16.50;65.50;;;;;;5050750;28;20067;-66
2023/11/11 04:17:23;;;;;;;2.60;0.50;;;16.50;65.50;;;;;;5046821;28;20110;-65
2023/11/11 04:19:48;;;;;;;0.50;0.50;;;16.50;65.50;;;;;;5047381;28;20041;-66
2023/11/11 04:22:14;;;;;;;0.70;0.50;;;16.50;65.50;;;;;;5040843;28;20059;-64
2023/11/11 04:24:40;;;;;;;1.40;0.43;;;16.50;66.10;;;;;;5044733;28;20243;-64
2023/11/11 04:27:06;;;;;;;1.20;0.45;;;16.50;65.50;;;;;;5039493;28;20029;-65
2023/11/11 04:29:32;;;;;;;1.52;0.60;;;16.50;65.40;;;;;;5045386;28;20218;-65
2023/11/11 04:31:57;;;;;;;1.17;0.55;;;16.50;65.40;;;;;;5043320;28;20402;-64
2023/11/11 04:34:23;;;;;;;1.60;0.50;;;16.50;65.50;;;;;;5042075;28;20043;-65
2023/11/11 04:36:48;;;;;;;1.15;0.50;;;16.50;65.40;;;;;;5043155;28;20641;-66
2023/11/11 04:39:14;;;;;;;1.00;0.55;;;16.50;65.50;;;;;;5044575;28;20032;-66
2023/11/11 04:41:43;;;;;;;1.10;0.60;;;16.50;65.50;;;;;;5043077;28;20025;-65
2023/11/11 04:44:09;;;;;;;0.40;0.30;;;16.50;65.40;;;;;;5042260;28;20124;-64
2023/11/11 04:46:36;;;;;;;0.80;0.43;;;16.50;65.40;;;;;;5041864;28;20037;-65
2023/11/11 04:49:02;;;;;;;1.23;0.40;;;16.50;65.40;;;;;;5040865;28;20080;-64
2023/11/11 04:51:27;;;;;;;1.33;0.47;;;16.50;65.50;;;;;;5042376;28;20083;-65
2023/11/11 04:53:53;;;;;;;0.50;0.40;;;16.50;65.50;;;;;;5042928;28;20110;-67
2023/11/11 04:56:19;;;;;;;0.68;0.40;;;16.50;65.40;;;;;;5048988;28;20110;-65
2023/11/11 04:58:46;;;;;;;0.63;0.32;;;16.50;65.50;;;;;;5050255;28;20138;-65
2023/11/11 05:01:12;;;;;;;1.25;0.52;;;16.50;65.40;;;;;;5046994;28;20112;-65
2023/11/11 05:03:37;;;;;;;0.93;0.50;;;16.50;65.50;;;;;;5048715;28;20115;-66
2023/11/11 05:06:03;;;;;;;0.60;0.40;;;16.50;65.50;;;;;;5047533;28;20187;-65
2023/11/11 05:08:28;;;;;;;0.40;0.40;;;16.50;65.50;;;;;;5048185;28;20040;-66
2023/11/11 05:10:55;;;;;;;1.33;0.52;;;16.50;65.40;;;;;;5049600;28;20052;-65
2023/11/11 05:13:21;;;;;;;0.82;0.50;;;16.50;65.50;;;;;;5050376;28;20542;-65
2023/11/11 05:15:50;;;;;;;0.98;0.47;;;16.50;65.50;;;;;;5050454;28;20037;-65
2023/11/11 05:18:15;;;;;;;0.60;0.50;;;16.50;65.40;;;;;;5046981;28;20032;-65
2023/11/11 05:20:41;;;;;;;2.97;0.55;;;16.50;65.50;;;;;;5047352;28;20490;-60
2023/11/11 05:23:09;;;;;;;1.17;0.50;;;16.50;65.50;;;;;;5047056;28;20032;-64
2023/11/11 05:25:35;;;;;;;0.60;0.30;;;16.50;65.50;;;;;;5048861;28;20629;-64
2023/11/11 05:28:00;;;;;;;1.38;0.50;;;16.50;65.40;;;;;;5049172;28;20040;-65
2023/11/11 05:30:26;;;;;;;0.68;0.50;;;16.50;65.40;;;;;;5046944;28;20028;-65
2023/11/11 05:32:55;;;;;;;0.90;0.68;;;16.40;65.40;;;;;;5046753;28;20117;-64
2023/11/11 05:35:20;;;;;;;0.77;0.40;;;16.50;65.50;;;;;;5047085;28;20029;-65
2023/11/11 05:37:47;;;;;;;0.85;0.47;;;16.50;65.50;;;;;;5046541;28;20086;-64
2023/11/11 05:40:17;;;;;;;1.23;0.70;;;16.40;65.40;;;;;;5048729;28;20033;-60
2023/11/11 05:42:44;;;;;;;0.70;0.50;;;16.50;65.50;;;;;;5047904;28;20040;-64
2023/11/11 05:45:10;;;;;;;1.48;0.38;;;16.40;65.40;;;;;;5048650;28;20028;-65
2023/11/11 05:47:35;;;;;;;0.90;0.30;;;16.40;66.10;;;;;;5042253;28;20029;-64
2023/11/11 05:50:01;;;;;;;0.77;0.32;;;16.40;65.40;;;;;;5046702;28;20029;-64
2023/11/11 05:52:27;;;;;;;0.82;0.47;;;16.40;65.40;;;;;;5042098;28;20043;-63
2023/11/11 05:54:52;;;;;;;1.05;0.35;;;16.40;65.40;;;;;;5042910;28;20043;-65
2023/11/11 05:57:18;;;;;;;1.27;0.68;;;16.40;65.40;;;;;;5038191;28;20041;-65
2023/11/11 05:59:43;;;;;;;0.77;0.40;;;16.40;65.40;;;;;;5043153;28;20082;-64
2023/11/11 06:02:09;;;;;;;0.60;0.50;;;16.40;65.40;;;;;;5041321;28;20117;-60
2023/11/11 06:04:35;;;;;;;0.95;0.60;;;16.40;65.50;;;;;;5041143;28;20052;-63
2023/11/11 06:07:01;;;;;;;0.60;0.40;;;16.40;65.50;;;;;;5040297;28;20030;-65
2023/11/11 06:09:26;;;;;;;0.70;0.40;;;16.40;65.50;;;;;;5041379;28;20021;-65
2023/11/11 06:11:52;;;;;;;1.10;0.60;;;16.40;65.40;;;;;;5056884;28;20032;-65
2023/11/11 06:14:18;;;;;;;0.65;0.43;;;16.40;66.10;;;;;;5043833;28;20028;-64
2023/11/11 06:16:44;;;;;;;0.43;0.40;;;16.40;65.50;;;;;;5039873;28;20506;-66
2023/11/11 06:19:10;;;;;;;0.80;0.68;;;16.40;65.40;;;;;;5044146;28;20491;-62
2023/11/11 06:21:35;;;;;;;1.60;0.60;;;16.40;65.40;;;;;;5038986;28;20032;-66
2023/11/11 06:24:01;;;;;;;0.73;0.43;;;16.40;65.40;;;;;;5041435;28;20048;-64
2023/11/11 06:26:28;;;;;;;1.38;0.40;;;16.40;65.50;;;;;;5041834;28;20021;-65
2023/11/11 06:28:55;;;;;;;2.47;0.93;;;16.40;65.50;;;;;;5043003;28;20435;-65
2023/11/11 06:31:21;;;;;;;0.47;0.40;;;16.30;65.40;;;;;;5047127;28;20028;-64
2023/11/11 06:33:49;;;;;;;0.70;0.47;;;16.30;65.40;;;;;;5046826;28;20033;-64
2023/11/11 06:36:15;;;;;;;0.73;0.40;;;16.40;65.40;;;;;;5046072;28;20029;-64
2023/11/11 06:38:40;;;;;;;1.13;0.50;;;16.30;65.40;;;;;;5047695;28;20448;-66
2023/11/11 06:41:07;;;;;;;0.70;0.45;;;16.40;65.40;;;;;;5046878;28;20124;-65
2023/11/11 06:43:33;;;;;;;0.77;0.73;;;16.40;65.40;;;;;;5046280;28;20036;-65
2023/11/11 06:45:59;;;;;;;0.50;0.50;;;16.40;65.40;;;;;;5044887;28;20090;-64
2023/11/11 06:48:26;;;;;;;1.15;0.63;;;16.40;65.60;;;;;;5046539;28;20036;-65
2023/11/11 06:50:52;;;;;;;1.02;0.47;;;16.40;65.50;;;;;;5045319;28;20521;-65
2023/11/11 06:53:17;;;;;;;0.98;0.52;;;16.30;65.40;;;;;;5046074;28;20495;-64
2023/11/11 06:55:45;;;;;;;1.80;1.05;;;16.30;65.40;;;;;;5045806;28;20040;-64
2023/11/11 06:58:11;;;;;;;1.13;0.70;;;16.30;65.40;;;;;;5046921;28;20580;-65
2023/11/11 07:00:36;;;;;;;0.80;0.60;;;16.40;65.50;;;;;;5044772;28;20119;-64
2023/11/11 07:03:02;;;;;;;1.10;0.50;;;16.40;65.40;;;;;;5045899;28;20033;-64
2023/11/11 07:05:28;;;;;;;2.33;0.50;;;16.30;65.40;;;;;;5045361;28;20515;-64
2023/11/11 07:07:53;;;;;;;1.08;0.50;;;16.40;65.40;;;;;;5047017;28;20079;-65
2023/11/11 07:10:21;;;;;;;0.60;0.60;;;16.40;65.40;;;;;;5044887;28;20021;-64
2023/11/11 07:12:47;;;;;;;1.13;0.52;;;16.30;65.50;;;;;;5044688;28;20033;-64
2023/11/11 07:15:15;;;;;;;2.28;0.60;;;16.30;65.40;;;;;;5046002;28;20032;-64
2023/11/11 07:17:41;;;;;;;1.35;0.70;;;16.30;65.40;;;;;;5044856;28;20068;-64
2023/11/11 07:20:12;;;;;;;1.88;0.70;;;16.30;65.30;;;;;;5045244;28;20037;-64
2023/11/11 07:22:38;;;;;;;1.20;0.77;;;16.30;65.40;;;;;;5037838;28;20653;-65
2023/11/11 07:25:09;;;;;;;2.45;1.05;;;16.30;65.40;;;;;;5041080;28;20045;-64
2023/11/11 07:27:35;;;;;;;0.90;0.52;;;16.30;65.40;;;;;;5037252;28;20384;-64
2023/11/11 07:30:03;;;;;;;1.30;0.50;;;16.30;65.40;;;;;;5039270;28;20086;-65
2023/11/11 07:32:29;;;;;;;1.52;0.75;;;16.30;65.40;;;;;;5036569;28;20519;-64
2023/11/11 07:34:54;;;;;;;0.47;0.45;;;16.30;65.40;;;;;;5037660;28;20040;-64
2023/11/11 07:37:21;;;;;;;0.63;0.63;;;16.30;65.40;;;;;;5038006;28;20074;-64
2023/11/11 07:39:46;;;;;;;0.60;0.60;;;16.30;65.40;;;;;;5038943;28;20091;-64
2023/11/11 07:42:12;;;;;;;0.55;0.55;;;16.30;65.40;;;;;;5037365;28;20041;-65
2023/11/11 07:44:37;;;;;;;0.52;0.52;;;16.30;65.40;;;;;;5039463;28;20037;-64
2023/11/11 07:47:06;;;;;;;0.98;0.70;;;16.30;66.10;;;;;;5042214;28;20293;-63
2023/11/11 07:49:32;;;;;;;0.50;0.43;;;16.30;65.50;;;;;;5040179;28;20511;-64
2023/11/11 07:51:58;;;;;;;0.80;0.70;;;16.30;65.50;;;;;;5038803;28;20597;-65
2023/11/11 07:54:23;;;;;;;2.78;0.52;;;16.30;65.50;;;;;;5041654;28;20045;-63
2023/11/11 07:56:50;;;;;;;1.17;0.70;;;16.30;65.50;;;;;;5042741;28;20032;-60
2023/11/11 07:59:17;;;;;;;3.03;1.35;;;16.30;65.50;;;;;;5044453;28;20305;-64
2023/11/11 08:01:43;;;;;;;2.30;1.60;;;16.30;65.60;;;;;;5043143;28;20373;-62
2023/11/11 08:04:09;;;;;;;2.67;1.65;;;16.30;65.50;;;;;;5044327;28;20021;-64
2023/11/11 08:06:34;;;;;;;3.90;1.60;;;16.30;65.60;;;;;;5043968;28;20025;-66
2023/11/11 08:09:00;;;;;;;4.68;2.97;;;16.30;65.60;;;;;;5041113;28;20055;-63
2023/11/11 08:11:25;;;;;;;5.32;3.38;;;16.30;65.60;;;;;;5044466;28;20104;-64
2023/11/11 08:13:52;;;;;;;6.53;3.97;;;16.30;65.60;;;;;;5044084;28;20458;-66
2023/11/11 08:16:18;;;;;;;10.13;4.40;;;16.30;65.60;;;;;;5040102;28;20040;-64
2023/11/11 08:18:44;;;;;;;6.75;4.03;;;16.30;65.60;;;;;;5045145;28;20407;-64
2023/11/11 08:21:09;;;;;;;10.43;4.85;;;16.30;65.60;;;;;;5045134;28;20029;-64
2023/11/11 08:23:35;;;;;;;9.20;4.55;;;16.30;65.60;;;;;;5044734;28;20033;-57
2023/11/11 08:26:02;;;;;;;8.80;5.10;;;16.30;65.60;;;;;;5044466;28;20122;-60
2023/11/11 08:28:28;;;;;;;9.52;4.65;;;16.20;65.70;;;;;;5044271;28;20033;-61
2023/11/11 08:30:53;;;;;;;11.27;5.63;;;16.30;65.80;;;;;;5051926;28;20036;-60
2023/11/11 08:33:18;;;;;;;9.63;4.93;;;16.30;65.70;;;;;;5048446;28;20033;-62
2023/11/11 08:35:45;;;;;;;8.60;5.18;;;16.30;65.80;;;;;;5047727;28;20120;-60
2023/11/11 08:38:10;;;;;;;9.40;5.20;;;16.20;65.70;;;;;;5050892;28;20145;-63
2023/11/11 08:40:36;;;;;;;11.52;4.78;;;16.30;65.80;;;;;;5050149;28;20563;-60
2023/11/11 08:43:02;;;;;;;9.18;5.22;;;16.20;65.70;;;;;;5047881;28;20037;-63
2023/11/11 08:45:27;;;;;;;11.25;5.47;;;16.30;65.80;;;;;;5042077;28;20025;-62
2023/11/11 08:47:53;;;;;;;10.15;4.65;;;16.30;65.70;;;;;;5040507;28;20048;-60
2023/11/11 08:50:19;;;;;;;9.95;5.20;;;16.20;65.70;;;;;;5041538;28;20117;-63
2023/11/11 08:52:45;;;;;;;9.32;4.25;;;16.30;65.80;;;;;;5043393;28;20116;-63
2023/11/11 08:55:10;;;;;;;10.23;5.28;;;16.20;65.70;;;;;;5042370;28;20480;-62
2023/11/11 08:57:36;;;;;;;9.20;5.43;;;16.20;65.70;;;;;;5042626;28;20715;-62
2023/11/11 09:00:08;;;;;;;8.82;4.75;;;16.20;66.30;;;;;;5042985;28;20025;-62
2023/11/11 09:02:37;;;;;;;9.43;4.82;;;16.20;65.70;;;;;;5041697;28;20083;-62
2023/11/11 09:05:02;;;;;;;9.43;5.15;;;16.20;65.70;;;;;;5039736;28;20028;-62
2023/11/11 09:07:28;;;;;;;7.72;4.55;;;16.20;65.70;;;;;;5036257;28;20029;-62
2023/11/11 09:09:54;;;;;;;8.95;4.63;;;16.20;65.70;;;;;;5042042;28;20183;-63
2023/11/11 09:12:19;;;;;;;9.18;4.55;;;16.20;65.70;;;;;;5045307;28;20620;-63
2023/11/11 09:14:45;;;;;;;9.70;4.47;;;16.20;65.70;;;;;;5044207;28;20514;-61
2023/11/11 09:17:10;;;;;;;7.95;5.15;;;16.20;65.70;;;;;;5048038;28;20036;-64
2023/11/11 09:19:36;;;;;;;6.93;3.72;;;16.20;65.70;;;;;;5052742;28;20538;-61
2023/11/11 09:22:02;;;;;;;10.80;4.93;;;16.20;65.70;;;;;;5044375;28;20487;-63
2023/11/11 09:24:27;;;;;;;8.43;4.45;;;16.20;65.80;;;;;;5050775;28;20043;-63
2023/11/11 09:26:53;;;;;;;10.00;5.53;;;16.20;65.90;;;;;;5047179;28;20030;-64
2023/11/11 09:29:19;;;;;;;12.50;5.88;;;16.20;65.90;;;;;;5046132;28;20036;-64
2023/11/11 09:31:45;;;;;;;15.30;6.63;;;16.20;66.00;;;;;;5044210;28;20037;-63
2023/11/11 09:34:12;;;;;;;12.82;5.97;;;16.20;65.90;;;;;;5053430;28;20056;-62
2023/11/11 09:36:39;;;;;;;17.35;6.97;;;16.20;65.90;;;;;;5053631;28;20029;-61
2023/11/11 09:39:08;;;;;;;12.63;6.82;;;16.20;66.00;;;;;;5048141;28;20036;-63
2023/11/11 09:41:36;;;;;;;13.77;5.68;;;16.20;65.90;;;;;;5047755;28;20060;-63
2023/11/11 09:44:03;;;;;;;12.02;5.97;;;16.20;66.00;;;;;;5040459;28;20231;-63
2023/11/11 09:46:39;;;;;;;13.65;6.55;;;16.20;66.10;;;;;;5040308;28;20102;-61
2023/11/11 09:49:05;;;;;;;14.93;7.05;;;16.20;66.10;;;;;;5034398;28;20021;-61
2023/11/11 09:51:32;;;;;;;13.48;6.68;;;16.20;66.10;;;;;;5036534;28;20036;-60
2023/11/11 09:54:01;;;;;;;15.35;6.20;;;16.20;66.10;;;;;;5034750;28;20522;-62
2023/11/11 09:56:30;;;;;;;17.98;6.38;;;16.20;66.10;;;;;;5036033;28;20037;-61
2023/11/11 09:58:59;;;;;;;14.57;7.03;;;16.20;66.10;;;;;;5038301;28;20119;-62
2023/11/11 10:01:26;;;;;;;13.93;6.85;;;16.20;66.10;;;;;;5038125;28;20037;-62
2023/11/11 10:03:54;;;;;;;12.38;6.03;;;16.20;66.10;;;;;;5036097;28;20045;-62
2023/11/11 10:06:23;;;;;;;11.98;6.25;;;16.20;66.10;;;;;;5040706;28;20471;-54
2023/11/11 10:08:52;;;;;;;11.77;5.90;;;16.20;66.10;;;;;;5037589;28;20511;-61
2023/11/11 10:11:18;;;;;;;13.48;6.32;;;16.20;66.10;;;;;;5037207;28;20483;-61
2023/11/11 10:13:43;;;;;;;13.02;6.25;;;16.20;66.10;;;;;;5035519;28;20035;-60
2023/11/11 10:16:17;;;;;;;12.02;5.65;;;16.20;66.10;;;;;;5045295;28;20037;-60
2023/11/11 10:18:45;;;;;;;13.45;6.03;;;16.20;66.10;;;;;;5044924;28;20488;-59
2023/11/11 10:21:13;;;;;;;14.77;7.03;;;16.20;66.20;;;;;;5046874;28;20488;-62
2023/11/11 10:23:39;;;;;;;12.43;5.57;;;16.20;66.10;;;;;;5046212;28;20110;-61
2023/11/11 10:26:06;;;;;;;11.07;5.28;;;16.20;66.20;;;;;;5045542;28;20068;-58
2023/11/11 10:28:31;;;;;;;10.88;5.35;;;16.20;66.10;;;;;;5046983;28;20033;-60
2023/11/11 10:31:08;;;;;;;12.88;5.43;;;16.20;66.10;;;;;;5046309;28;20044;-62
2023/11/11 10:33:37;;;;;;;14.40;5.22;;;16.20;66.10;;;;;;5045909;28;20115;-63
2023/11/11 10:36:03;;;;;;;8.95;4.55;;;16.10;66.00;;;;;;5046505;28;20063;-62
2023/11/11 10:38:30;;;;;;;11.45;4.70;;;16.20;66.10;;;;;;5046435;28;20079;-62
2023/11/11 10:40:56;;;;;;;10.73;4.95;;;16.10;66.10;;;;;;5042374;28;20052;-61
2023/11/11 10:43:26;;;;;;;10.00;4.22;;;16.20;66.10;;;;;;5046583;28;20043;-63
2023/11/11 10:45:52;;;;;;;9.80;4.97;;;16.20;66.10;;;;;;5034156;28;20052;-64
2023/11/11 10:48:18;;;;;;;10.68;4.78;;;16.20;66.10;;;;;;5040016;28;20048;-64
2023/11/11 10:50:44;;;;;;;11.05;5.28;;;16.20;66.20;;;;;;5044564;28;20021;-56
2023/11/11 10:53:14;;;;;;;13.02;4.50;;;16.10;66.10;;;;;;5042389;28;20051;-63
2023/11/11 10:55:43;;;;;;;8.80;4.10;;;16.10;66.10;;;;;;5040339;28;20519;-64
2023/11/11 10:58:10;;;;;;;8.68;4.55;;;16.10;66.10;;;;;;5038966;28;20036;-63
2023/11/11 11:00:37;;;;;;;12.85;5.05;;;16.10;66.10;;;;;;5040883;28;20029;-63
2023/11/11 11:03:04;;;;;;;7.97;4.47;;;16.10;66.10;;;;;;5040379;28;20040;-64
2023/11/11 11:05:44;;;;;;;11.55;4.15;;;16.10;66.20;;;;;;5039959;28;20439;-63
2023/11/11 11:08:42;;;;;;;8.18;4.65;;;16.10;66.20;;;;;;5040395;28;20174;-61
2023/11/11 11:11:16;;;;;;;10.77;5.18;;;16.10;66.20;;;;;;5038053;28;20147;-63
2023/11/11 11:13:45;;;;;;;11.15;4.22;;;16.10;66.10;;;;;;5036154;28;20095;-63
2023/11/11 11:16:28;;;;;;;8.95;3.50;;;16.10;66.20;;;;;;5039339;28;20037;-62
2023/11/11 11:18:57;;;;;;;9.38;3.67;;;16.10;66.20;;;;;;5037603;28;20041;-63
2023/11/11 11:21:25;;;;;;;9.57;4.45;;;16.10;66.10;;;;;;5039633;28;20044;-63
2023/11/11 11:23:51;;;;;;;7.35;4.00;;;16.10;66.20;;;;;;5041601;28;20044;-63
2023/11/11 11:26:29;;;;;;;7.03;3.47;;;16.10;66.20;;;;;;5041902;28;20032;-63
2023/11/11 11:29:15;;;;;;;7.07;3.08;;;16.10;66.30;;;;;;5039470;28;20067;-63
2023/11/11 11:31:59;;;;;;;;;;;16.10;66.30;;;;;;5038530;28;20040;-62
2023/11/11 11:34:25;;;;;;;5.78;3.47;;;16.10;66.20;;;;;;5038578;28;19917;-63
2023/11/11 11:36:54;;;;;;;6.45;2.85;;;16.10;66.30;;;;;;5038833;28;20029;-63
2023/11/11 11:39:25;;;;;;;7.57;3.53;;;16.20;66.30;;;;;;5036425;28;20033;-62
2023/11/11 11:41:53;;;;;;;6.40;3.17;;;16.20;66.40;;;;;;5036400;28;20045;-62
2023/11/11 11:44:19;;;;;;;6.68;3.70;;;16.10;66.30;;;;;;5037686;28;20033;-63
2023/11/11 11:46:46;;;;;;;5.43;2.75;;;16.10;66.40;;;;;;5035428;28;20037;-63
2023/11/11 11:49:11;;;;;;;5.43;3.42;;;16.10;66.30;;;;;;5036521;28;20037;-63
2023/11/11 11:51:52;;;;;;;5.18;2.70;;;16.10;66.30;;;;;;5039795;28;20033;-62
2023/11/11 11:54:18;;;;;;;5.20;2.38;;;16.10;66.40;;;;;;5040874;28;20104;-64
2023/11/11 11:56:44;;;;;;;5.68;2.40;;;16.10;66.30;;;;;;5039057;28;20041;-64
2023/11/11 11:59:13;;;;;;;5.78;2.65;;;16.10;66.40;;;;;;5039816;28;20064;-63
2023/11/11 12:01:39;;;;;;;5.22;2.78;;;16.10;66.30;;;;;;5038701;28;20033;-62
2023/11/11 12:04:05;;;;;;;6.38;2.13;;;16.10;66.30;;;;;;5039526;28;20407;-66
2023/11/11 12:06:37;;;;;;;7.63;2.50;;;16.10;66.40;;;;;;5040491;28;20063;-65
2023/11/11 12:09:07;;;;;;;6.45;2.72;;;16.10;66.40;;;;;;5039489;28;20376;-63
2023/11/11 12:11:33;;;;;;;3.90;2.45;;;16.10;66.40;;;;;;5037410;28;20037;-66
2023/11/11 12:14:04;;;;;;;3.22;2.15;;;16.10;66.40;;;;;;5041104;28;20076;-65
2023/11/11 12:16:39;;;;;;;4.18;2.30;;;16.20;66.40;;;;;;5039706;28;20454;-63
2023/11/11 12:19:18;;;;;;;6.90;2.30;;;16.20;66.50;;;;;;5041928;28;20033;-66
2023/11/11 12:21:46;;;;;;;6.60;2.83;;;16.10;66.40;;;;;;5044199;28;20040;-64
2023/11/11 12:24:25;;;;;;;10.38;2.42;;;16.20;66.50;;;;;;5044046;28;20043;-65
2023/11/11 12:26:52;;;;;;;5.35;2.25;;;16.20;66.50;;;;;;5041893;28;20064;-65
2023/11/11 12:29:21;;;;;;;6.68;2.35;;;16.10;66.50;;;;;;5043491;28;20037;-67
2023/11/11 12:31:49;;;;;;;5.20;2.00;;;16.20;66.60;;;;;;5040870;28;20091;-64
2023/11/11 12:34:16;;;;;;;3.65;2.13;;;16.20;66.70;;;;;;5041984;28;20630;-65
2023/11/11 12:36:42;;;;;;;3.88;1.85;;;16.20;66.60;;;;;;5039218;28;20530;-62
2023/11/11 12:39:08;;;;;;;4.57;2.55;;;16.20;66.90;;;;;;5038334;28;20024;-55
2023/11/11 12:41:38;;;;;;;5.40;2.42;;;16.20;67.00;;;;;;5037017;28;20037;-63
2023/11/11 12:44:05;;;;;;;3.45;2.30;;;16.20;67.10;;;;;;5037169;28;20043;-57